sensor_id;sensor_type;location;lat;lon;timestamp;P1;durP1;ratioP1;P2;durP2;ratioP2
34960;SDS011;30789;52.030;7.110;2023-10-31T00:01:08;10.35;;;8.43;;
34960;SDS011;30789;52.030;7.110;2023-10-31T00:03:53;10.02;;;8.38;;
34960;SDS011;30789;52.030;7.110;2023-10-31T00:09:28;9.25;;;8.23;;
34960;SDS011;30789;52.030;7.110;2023-10-31T00:12:08;11.90;;;8.63;;
34960;SDS011;30789;52.030;7.110;2023-10-31T00:15:10;9.88;;;8.30;;
34960;SDS011;30789;52.030;7.110;2023-10-31T00:18:01;10.15;;;8.77;;
34960;SDS011;30789;52.030;7.110;2023-10-31T00:21:43;10.38;;;9.27;;
34960;SDS011;30789;52.030;7.110;2023-10-31T00:26:47;10.43;;;9.32;;
34960;SDS011;30789;52.030;7.110;2023-10-31T00:29:19;17.63;;;10.27;;
34960;SDS011;30789;52.030;7.110;2023-10-31T00:31:49;12.45;;;10.02;;
34960;SDS011;30789;52.030;7.110;2023-10-31T00:34:24;10.35;;;9.23;;
34960;SDS011;30789;52.030;7.110;2023-10-31T00:37:32;10.48;;;9.38;;
34960;SDS011;30789;52.030;7.110;2023-10-31T00:40:11;9.80;;;8.63;;
34960;SDS011;30789;52.030;7.110;2023-10-31T00:42:59;8.68;;;7.78;;
34960;SDS011;30789;52.030;7.110;2023-10-31T00:45:42;9.13;;;7.13;;
34960;SDS011;30789;52.030;7.110;2023-10-31T01:49:57;0.60;;;0.60;;
34960;SDS011;30789;52.030;7.110;2023-10-31T01:52:24;0.45;;;0.45;;
34960;SDS011;30789;52.030;7.110;2023-10-31T01:54:50;0.60;;;0.30;;
34960;SDS011;30789;52.030;7.110;2023-10-31T01:57:18;0.65;;;0.20;;
34960;SDS011;30789;52.030;7.110;2023-10-31T01:59:47;0.57;;;0.40;;
34960;SDS011;30789;52.030;7.110;2023-10-31T02:02:23;0.35;;;0.13;;
34960;SDS011;30789;52.030;7.110;2023-10-31T02:04:51;1.67;;;0.10;;
34960;SDS011;30789;52.030;7.110;2023-10-31T02:10:40;0.20;;;0.10;;
34960;SDS011;30789;52.030;7.110;2023-10-31T02:16:25;0.55;;;0.20;;
34960;SDS011;30789;52.030;7.110;2023-10-31T02:19:30;0.38;;;0.20;;
34960;SDS011;30789;52.030;7.110;2023-10-31T02:22:13;1.25;;;0.30;;
34960;SDS011;30789;52.030;7.110;2023-10-31T02:57:29;2.90;;;1.20;;
34960;SDS011;30789;52.030;7.110;2023-10-31T03:00:20;3.03;;;1.15;;
34960;SDS011;30789;52.030;7.110;2023-10-31T03:03:09;3.83;;;1.55;;
34960;SDS011;30789;52.030;7.110;2023-10-31T03:06:16;3.05;;;1.85;;
34960;SDS011;30789;52.030;7.110;2023-10-31T03:08:50;4.18;;;2.08;;
34960;SDS011;30789;52.030;7.110;2023-10-31T03:31:17;7.30;;;6.28;;
34960;SDS011;30789;52.030;7.110;2023-10-31T03:33:52;8.50;;;6.78;;
34960;SDS011;30789;52.030;7.110;2023-10-31T03:49:46;10.65;;;7.47;;
34960;SDS011;30789;52.030;7.110;2023-10-31T03:56:35;13.98;;;8.07;;
34960;SDS011;30789;52.030;7.110;2023-10-31T04:11:58;13.30;;;10.15;;
34960;SDS011;30789;52.030;7.110;2023-10-31T04:19:14;18.98;;;13.10;;
34960;SDS011;30789;52.030;7.110;2023-10-31T05:30:51;12.32;;;8.73;;
34960;SDS011;30789;52.030;7.110;2023-10-31T05:58:01;4.85;;;3.75;;
34960;SDS011;30789;52.030;7.110;2023-10-31T06:00:06;6.93;;;3.83;;
34960;SDS011;30789;52.030;7.110;2023-10-31T06:05:59;5.00;;;4.50;;
34960;SDS011;30789;52.030;7.110;2023-10-31T06:08:31;7.85;;;4.80;;
34960;SDS011;30789;52.030;7.110;2023-10-31T06:11:00;5.97;;;5.28;;
34960;SDS011;30789;52.030;7.110;2023-10-31T06:13:27;7.00;;;5.65;;
34960;SDS011;30789;52.030;7.110;2023-10-31T06:43:29;3.80;;;3.30;;
34960;SDS011;30789;52.030;7.110;2023-10-31T06:45:56;5.32;;;3.58;;
34960;SDS011;30789;52.030;7.110;2023-10-31T06:48:30;5.82;;;3.95;;
34960;SDS011;30789;52.030;7.110;2023-10-31T06:51:00;5.57;;;3.92;;
34960;SDS011;30789;52.030;7.110;2023-10-31T06:53:29;8.23;;;4.50;;
34960;SDS011;30789;52.030;7.110;2023-10-31T06:59:38;7.45;;;4.43;;
34960;SDS011;30789;52.030;7.110;2023-10-31T07:02:10;7.30;;;4.25;;
34960;SDS011;30789;52.030;7.110;2023-10-31T07:04:56;7.03;;;4.60;;
34960;SDS011;30789;52.030;7.110;2023-10-31T07:07:56;8.35;;;4.93;;
34960;SDS011;30789;52.030;7.110;2023-10-31T07:10:23;6.85;;;4.85;;
34960;SDS011;30789;52.030;7.110;2023-10-31T07:13:06;6.88;;;5.35;;
34960;SDS011;30789;52.030;7.110;2023-10-31T07:21:41;10.27;;;5.55;;
34960;SDS011;30789;52.030;7.110;2023-10-31T07:24:10;9.63;;;6.35;;
34960;SDS011;30789;52.030;7.110;2023-10-31T07:27:22;9.50;;;6.60;;
34960;SDS011;30789;52.030;7.110;2023-10-31T07:29:44;10.35;;;7.15;;
34960;SDS011;30789;52.030;7.110;2023-10-31T07:32:27;11.73;;;7.10;;
34960;SDS011;30789;52.030;7.110;2023-10-31T07:35:23;9.68;;;6.63;;
34960;SDS011;30789;52.030;7.110;2023-10-31T07:37:56;10.63;;;7.63;;
34960;SDS011;30789;52.030;7.110;2023-10-31T07:40:22;9.20;;;6.88;;
34960;SDS011;30789;52.030;7.110;2023-10-31T07:42:49;10.23;;;7.32;;
34960;SDS011;30789;52.030;7.110;2023-10-31T07:45:31;10.43;;;7.38;;
34960;SDS011;30789;52.030;7.110;2023-10-31T07:48:02;10.98;;;7.65;;
34960;SDS011;30789;52.030;7.110;2023-10-31T07:50:40;9.88;;;7.53;;
34960;SDS011;30789;52.030;7.110;2023-10-31T07:53:09;12.02;;;9.05;;
34960;SDS011;30789;52.030;7.110;2023-10-31T07:55:38;12.48;;;8.43;;
34960;SDS011;30789;52.030;7.110;2023-10-31T07:58:06;12.70;;;7.57;;
34960;SDS011;30789;52.030;7.110;2023-10-31T08:00:35;10.82;;;7.22;;
34960;SDS011;30789;52.030;7.110;2023-10-31T08:03:04;8.48;;;6.97;;
34960;SDS011;30789;52.030;7.110;2023-10-31T08:05:35;10.40;;;7.07;;
34960;SDS011;30789;52.030;7.110;2023-10-31T08:08:04;7.68;;;6.40;;
34960;SDS011;30789;52.030;7.110;2023-10-31T08:10:31;9.98;;;7.28;;
34960;SDS011;30789;52.030;7.110;2023-10-31T08:12:59;10.00;;;7.32;;
34960;SDS011;30789;52.030;7.110;2023-10-31T08:15:26;10.32;;;8.00;;
34960;SDS011;30789;52.030;7.110;2023-10-31T08:17:52;11.43;;;8.27;;
34960;SDS011;30789;52.030;7.110;2023-10-31T08:20:24;16.48;;;9.23;;
34960;SDS011;30789;52.030;7.110;2023-10-31T08:23:00;11.88;;;8.13;;
34960;SDS011;30789;52.030;7.110;2023-10-31T08:25:27;14.85;;;8.02;;
34960;SDS011;30789;52.030;7.110;2023-10-31T08:27:54;14.05;;;9.48;;
34960;SDS011;30789;52.030;7.110;2023-10-31T08:30:20;15.10;;;8.88;;
34960;SDS011;30789;52.030;7.110;2023-10-31T08:32:49;14.52;;;8.68;;
34960;SDS011;30789;52.030;7.110;2023-10-31T08:35:15;15.32;;;9.75;;
34960;SDS011;30789;52.030;7.110;2023-10-31T08:37:45;14.75;;;9.95;;
34960;SDS011;30789;52.030;7.110;2023-10-31T08:40:13;16.67;;;9.93;;
34960;SDS011;30789;52.030;7.110;2023-10-31T08:42:43;16.92;;;9.25;;
34960;SDS011;30789;52.030;7.110;2023-10-31T08:45:11;16.45;;;8.35;;
34960;SDS011;30789;52.030;7.110;2023-10-31T08:47:38;15.60;;;10.30;;
34960;SDS011;30789;52.030;7.110;2023-10-31T08:50:07;14.60;;;9.65;;
34960;SDS011;30789;52.030;7.110;2023-10-31T08:52:38;16.15;;;10.02;;
34960;SDS011;30789;52.030;7.110;2023-10-31T08:55:05;21.02;;;12.00;;
34960;SDS011;30789;52.030;7.110;2023-10-31T08:57:37;19.25;;;11.52;;
34960;SDS011;30789;52.030;7.110;2023-10-31T09:00:04;14.52;;;10.15;;
34960;SDS011;30789;52.030;7.110;2023-10-31T09:02:34;13.93;;;10.30;;
34960;SDS011;30789;52.030;7.110;2023-10-31T09:05:01;17.45;;;10.73;;
34960;SDS011;30789;52.030;7.110;2023-10-31T09:07:28;15.38;;;11.07;;
34960;SDS011;30789;52.030;7.110;2023-10-31T09:10:04;18.17;;;12.25;;
34960;SDS011;30789;52.030;7.110;2023-10-31T09:12:31;14.90;;;10.82;;
34960;SDS011;30789;52.030;7.110;2023-10-31T09:14:59;16.35;;;11.48;;
34960;SDS011;30789;52.030;7.110;2023-10-31T09:17:26;15.73;;;11.15;;
34960;SDS011;30789;52.030;7.110;2023-10-31T09:19:57;19.55;;;12.38;;
34960;SDS011;30789;52.030;7.110;2023-10-31T09:22:26;17.98;;;11.60;;
34960;SDS011;30789;52.030;7.110;2023-10-31T09:24:53;19.75;;;12.15;;
34960;SDS011;30789;52.030;7.110;2023-10-31T09:27:19;16.77;;;11.90;;
34960;SDS011;30789;52.030;7.110;2023-10-31T09:29:46;17.63;;;12.20;;
34960;SDS011;30789;52.030;7.110;2023-10-31T09:32:17;24.48;;;13.88;;
34960;SDS011;30789;52.030;7.110;2023-10-31T09:34:44;22.35;;;13.30;;
34960;SDS011;30789;52.030;7.110;2023-10-31T09:37:11;18.65;;;12.98;;
34960;SDS011;30789;52.030;7.110;2023-10-31T09:39:37;18.98;;;12.68;;
34960;SDS011;30789;52.030;7.110;2023-10-31T09:42:04;18.58;;;12.52;;
34960;SDS011;30789;52.030;7.110;2023-10-31T09:44:31;17.83;;;12.30;;
34960;SDS011;30789;52.030;7.110;2023-10-31T09:46:58;20.45;;;14.07;;
34960;SDS011;30789;52.030;7.110;2023-10-31T09:49:28;20.05;;;13.20;;
34960;SDS011;30789;52.030;7.110;2023-10-31T09:51:55;20.30;;;13.98;;
34960;SDS011;30789;52.030;7.110;2023-10-31T09:54:23;21.80;;;13.77;;
34960;SDS011;30789;52.030;7.110;2023-10-31T09:56:52;19.50;;;12.77;;
34960;SDS011;30789;52.030;7.110;2023-10-31T09:59:18;19.80;;;12.20;;
34960;SDS011;30789;52.030;7.110;2023-10-31T10:01:45;16.70;;;11.43;;
34960;SDS011;30789;52.030;7.110;2023-10-31T10:04:11;16.98;;;11.43;;
34960;SDS011;30789;52.030;7.110;2023-10-31T10:06:50;16.13;;;11.10;;
34960;SDS011;30789;52.030;7.110;2023-10-31T10:09:24;15.40;;;10.88;;
34960;SDS011;30789;52.030;7.110;2023-10-31T10:11:52;14.32;;;10.60;;
34960;SDS011;30789;52.030;7.110;2023-10-31T10:14:22;16.98;;;11.60;;
34960;SDS011;30789;52.030;7.110;2023-10-31T10:16:53;17.67;;;11.80;;
34960;SDS011;30789;52.030;7.110;2023-10-31T10:19:20;14.98;;;10.40;;
34960;SDS011;30789;52.030;7.110;2023-10-31T10:21:52;14.10;;;10.00;;
34960;SDS011;30789;52.030;7.110;2023-10-31T10:24:24;14.98;;;10.40;;
34960;SDS011;30789;52.030;7.110;2023-10-31T10:26:51;14.73;;;10.30;;
34960;SDS011;30789;52.030;7.110;2023-10-31T10:29:20;13.68;;;10.13;;
34960;SDS011;30789;52.030;7.110;2023-10-31T10:31:46;13.60;;;10.18;;
34960;SDS011;30789;52.030;7.110;2023-10-31T10:34:17;12.55;;;10.02;;
34960;SDS011;30789;52.030;7.110;2023-10-31T10:36:45;12.40;;;9.85;;
34960;SDS011;30789;52.030;7.110;2023-10-31T10:39:15;13.50;;;10.40;;
34960;SDS011;30789;52.030;7.110;2023-10-31T10:41:50;14.02;;;10.07;;
34960;SDS011;30789;52.030;7.110;2023-10-31T10:44:22;18.25;;;10.65;;
34960;SDS011;30789;52.030;7.110;2023-10-31T10:46:57;18.17;;;10.07;;
34960;SDS011;30789;52.030;7.110;2023-10-31T10:49:34;13.73;;;9.77;;
34960;SDS011;30789;52.030;7.110;2023-10-31T10:52:06;16.27;;;9.52;;
34960;SDS011;30789;52.030;7.110;2023-10-31T10:54:53;11.85;;;8.98;;
34960;SDS011;30789;52.030;7.110;2023-10-31T10:57:28;8.88;;;7.63;;
34960;SDS011;30789;52.030;7.110;2023-10-31T11:00:06;14.30;;;8.43;;
34960;SDS011;30789;52.030;7.110;2023-10-31T11:02:40;14.43;;;7.80;;
34960;SDS011;30789;52.030;7.110;2023-10-31T11:05:10;13.15;;;8.38;;
34960;SDS011;30789;52.030;7.110;2023-10-31T11:10:10;10.98;;;6.80;;
34960;SDS011;30789;52.030;7.110;2023-10-31T11:12:38;10.27;;;7.10;;
34960;SDS011;30789;52.030;7.110;2023-10-31T11:15:05;8.63;;;6.47;;
34960;SDS011;30789;52.030;7.110;2023-10-31T11:17:33;10.60;;;6.35;;
34960;SDS011;30789;52.030;7.110;2023-10-31T11:20:02;11.27;;;6.55;;
34960;SDS011;30789;52.030;7.110;2023-10-31T11:22:36;9.77;;;6.70;;
34960;SDS011;30789;52.030;7.110;2023-10-31T11:25:06;10.68;;;6.85;;
34960;SDS011;30789;52.030;7.110;2023-10-31T11:27:41;10.18;;;7.10;;
34960;SDS011;30789;52.030;7.110;2023-10-31T11:30:09;10.25;;;6.47;;
34960;SDS011;30789;52.030;7.110;2023-10-31T11:32:47;7.18;;;5.43;;
34960;SDS011;30789;52.030;7.110;2023-10-31T11:35:15;7.45;;;5.97;;
34960;SDS011;30789;52.030;7.110;2023-10-31T11:37:42;11.10;;;5.55;;
34960;SDS011;30789;52.030;7.110;2023-10-31T11:40:17;9.63;;;5.90;;
34960;SDS011;30789;52.030;7.110;2023-10-31T11:45:24;8.95;;;5.32;;
34960;SDS011;30789;52.030;7.110;2023-10-31T11:47:54;8.82;;;6.18;;
34960;SDS011;30789;52.030;7.110;2023-10-31T11:50:27;9.23;;;5.97;;
34960;SDS011;30789;52.030;7.110;2023-10-31T11:53:02;10.77;;;5.65;;
34960;SDS011;30789;52.030;7.110;2023-10-31T11:55:35;8.90;;;5.68;;
34960;SDS011;30789;52.030;7.110;2023-10-31T11:58:13;9.00;;;6.43;;
34960;SDS011;30789;52.030;7.110;2023-10-31T12:00:43;10.25;;;6.50;;
34960;SDS011;30789;52.030;7.110;2023-10-31T12:03:10;12.00;;;6.80;;
34960;SDS011;30789;52.030;7.110;2023-10-31T12:05:39;14.02;;;7.45;;
34960;SDS011;30789;52.030;7.110;2023-10-31T12:08:05;10.98;;;8.38;;
34960;SDS011;30789;52.030;7.110;2023-10-31T12:10:41;14.18;;;9.65;;
34960;SDS011;30789;52.030;7.110;2023-10-31T12:13:15;14.30;;;8.90;;
34960;SDS011;30789;52.030;7.110;2023-10-31T12:15:52;17.23;;;10.02;;
34960;SDS011;30789;52.030;7.110;2023-10-31T12:18:21;13.90;;;10.27;;
34960;SDS011;30789;52.030;7.110;2023-10-31T12:20:48;16.40;;;11.48;;
34960;SDS011;30789;52.030;7.110;2023-10-31T12:23:17;15.45;;;11.82;;
34960;SDS011;30789;52.030;7.110;2023-10-31T12:25:49;20.85;;;11.70;;
34960;SDS011;30789;52.030;7.110;2023-10-31T12:28:18;17.15;;;12.60;;
34960;SDS011;30789;52.030;7.110;2023-10-31T12:33:15;15.23;;;11.48;;
34960;SDS011;30789;52.030;7.110;2023-10-31T12:35:50;14.02;;;11.23;;
34960;SDS011;30789;52.030;7.110;2023-10-31T12:38:18;20.60;;;12.13;;
34960;SDS011;30789;52.030;7.110;2023-10-31T12:40:50;17.53;;;11.43;;
34960;SDS011;30789;52.030;7.110;2023-10-31T12:43:18;16.02;;;11.60;;
34960;SDS011;30789;52.030;7.110;2023-10-31T12:45:45;14.40;;;11.18;;
34960;SDS011;30789;52.030;7.110;2023-10-31T12:48:14;17.30;;;12.43;;
34960;SDS011;30789;52.030;7.110;2023-10-31T12:50:44;16.20;;;11.60;;
34960;SDS011;30789;52.030;7.110;2023-10-31T12:53:22;15.32;;;10.90;;
34960;SDS011;30789;52.030;7.110;2023-10-31T12:55:50;15.95;;;10.68;;
34960;SDS011;30789;52.030;7.110;2023-10-31T12:58:21;17.75;;;11.55;;
34960;SDS011;30789;52.030;7.110;2023-10-31T13:01:00;13.77;;;10.20;;
34960;SDS011;30789;52.030;7.110;2023-10-31T13:03:27;21.55;;;10.77;;
34960;SDS011;30789;52.030;7.110;2023-10-31T13:05:53;14.60;;;10.35;;
34960;SDS011;30789;52.030;7.110;2023-10-31T13:08:22;15.07;;;9.68;;
34960;SDS011;30789;52.030;7.110;2023-10-31T13:10:50;14.80;;;10.15;;
34960;SDS011;30789;52.030;7.110;2023-10-31T13:13:18;15.25;;;9.60;;
34960;SDS011;30789;52.030;7.110;2023-10-31T13:15:44;21.10;;;9.85;;
34960;SDS011;30789;52.030;7.110;2023-10-31T13:18:11;14.52;;;9.20;;
34960;SDS011;30789;52.030;7.110;2023-10-31T13:20:39;12.70;;;9.38;;
34960;SDS011;30789;52.030;7.110;2023-10-31T13:23:05;13.90;;;9.35;;
34960;SDS011;30789;52.030;7.110;2023-10-31T13:25:32;16.75;;;8.73;;
34960;SDS011;30789;52.030;7.110;2023-10-31T13:28:00;15.82;;;8.90;;
34960;SDS011;30789;52.030;7.110;2023-10-31T13:30:29;12.02;;;8.45;;
34960;SDS011;30789;52.030;7.110;2023-10-31T13:32:55;14.27;;;8.55;;
34960;SDS011;30789;52.030;7.110;2023-10-31T13:35:22;16.00;;;9.07;;
34960;SDS011;30789;52.030;7.110;2023-10-31T13:37:49;15.50;;;9.85;;
34960;SDS011;30789;52.030;7.110;2023-10-31T13:40:15;16.08;;;9.15;;
34960;SDS011;30789;52.030;7.110;2023-10-31T13:42:42;12.93;;;8.13;;
34960;SDS011;30789;52.030;7.110;2023-10-31T13:45:10;20.92;;;9.68;;
34960;SDS011;30789;52.030;7.110;2023-10-31T13:47:37;14.93;;;8.23;;
34960;SDS011;30789;52.030;7.110;2023-10-31T13:50:04;12.50;;;7.68;;
34960;SDS011;30789;52.030;7.110;2023-10-31T13:52:31;12.73;;;7.95;;
34960;SDS011;30789;52.030;7.110;2023-10-31T13:54:58;16.42;;;8.10;;
34960;SDS011;30789;52.030;7.110;2023-10-31T13:57:25;16.13;;;9.10;;
34960;SDS011;30789;52.030;7.110;2023-10-31T13:59:51;14.48;;;8.48;;
34960;SDS011;30789;52.030;7.110;2023-10-31T14:02:20;12.90;;;8.75;;
34960;SDS011;30789;52.030;7.110;2023-10-31T14:04:46;12.57;;;8.48;;
34960;SDS011;30789;52.030;7.110;2023-10-31T14:07:13;15.63;;;9.13;;
34960;SDS011;30789;52.030;7.110;2023-10-31T14:09:46;18.80;;;8.63;;
34960;SDS011;30789;52.030;7.110;2023-10-31T14:12:13;13.38;;;8.73;;
34960;SDS011;30789;52.030;7.110;2023-10-31T14:14:40;15.85;;;8.77;;
34960;SDS011;30789;52.030;7.110;2023-10-31T14:17:06;14.27;;;8.85;;
34960;SDS011;30789;52.030;7.110;2023-10-31T14:19:34;18.48;;;9.07;;
34960;SDS011;30789;52.030;7.110;2023-10-31T14:22:01;12.88;;;8.38;;
34960;SDS011;30789;52.030;7.110;2023-10-31T14:24:27;14.10;;;7.93;;
34960;SDS011;30789;52.030;7.110;2023-10-31T14:26:54;14.48;;;8.43;;
34960;SDS011;30789;52.030;7.110;2023-10-31T14:29:20;14.70;;;7.88;;
34960;SDS011;30789;52.030;7.110;2023-10-31T14:31:47;18.60;;;9.07;;
34960;SDS011;30789;52.030;7.110;2023-10-31T14:34:14;10.93;;;8.68;;
34960;SDS011;30789;52.030;7.110;2023-10-31T14:36:41;12.45;;;7.95;;
34960;SDS011;30789;52.030;7.110;2023-10-31T14:39:08;12.43;;;7.97;;
34960;SDS011;30789;52.030;7.110;2023-10-31T14:41:36;13.15;;;8.13;;
34960;SDS011;30789;52.030;7.110;2023-10-31T14:44:03;15.23;;;8.32;;
34960;SDS011;30789;52.030;7.110;2023-10-31T14:46:30;14.50;;;8.18;;
34960;SDS011;30789;52.030;7.110;2023-10-31T14:48:58;13.15;;;8.68;;
34960;SDS011;30789;52.030;7.110;2023-10-31T14:51:24;15.82;;;8.70;;
34960;SDS011;30789;52.030;7.110;2023-10-31T14:53:52;4.05;;;2.65;;
34960;SDS011;30789;52.030;7.110;2023-10-31T14:56:19;5.05;;;1.73;;
34960;SDS011;30789;52.030;7.110;2023-10-31T14:58:46;2.25;;;1.42;;
34960;SDS011;30789;52.030;7.110;2023-10-31T15:01:13;2.83;;;1.17;;
34960;SDS011;30789;52.030;7.110;2023-10-31T15:03:41;2.40;;;1.23;;
34960;SDS011;30789;52.030;7.110;2023-10-31T15:06:07;4.18;;;1.38;;
34960;SDS011;30789;52.030;7.110;2023-10-31T15:08:34;1.95;;;1.25;;
34960;SDS011;30789;52.030;7.110;2023-10-31T15:11:02;4.07;;;1.00;;
34960;SDS011;30789;52.030;7.110;2023-10-31T15:13:29;2.88;;;0.75;;
34960;SDS011;30789;52.030;7.110;2023-10-31T15:15:56;2.47;;;0.98;;
34960;SDS011;30789;52.030;7.110;2023-10-31T15:18:22;1.13;;;0.77;;
34960;SDS011;30789;52.030;7.110;2023-10-31T15:20:49;1.27;;;0.80;;
34960;SDS011;30789;52.030;7.110;2023-10-31T15:23:15;2.72;;;0.80;;
34960;SDS011;30789;52.030;7.110;2023-10-31T15:25:42;4.43;;;1.15;;
34960;SDS011;30789;52.030;7.110;2023-10-31T15:28:10;2.72;;;1.42;;
34960;SDS011;30789;52.030;7.110;2023-10-31T15:30:36;1.27;;;1.02;;
34960;SDS011;30789;52.030;7.110;2023-10-31T15:33:03;2.45;;;0.95;;
34960;SDS011;30789;52.030;7.110;2023-10-31T15:35:29;1.40;;;1.15;;
34960;SDS011;30789;52.030;7.110;2023-10-31T15:37:56;1.05;;;0.63;;
34960;SDS011;30789;52.030;7.110;2023-10-31T15:40:22;1.45;;;0.80;;
34960;SDS011;30789;52.030;7.110;2023-10-31T15:42:49;1.92;;;0.80;;
34960;SDS011;30789;52.030;7.110;2023-10-31T15:45:17;3.95;;;1.05;;
34960;SDS011;30789;52.030;7.110;2023-10-31T15:47:43;1.95;;;0.90;;
34960;SDS011;30789;52.030;7.110;2023-10-31T15:50:10;2.67;;;1.13;;
34960;SDS011;30789;52.030;7.110;2023-10-31T15:52:36;3.20;;;1.40;;
34960;SDS011;30789;52.030;7.110;2023-10-31T15:55:03;4.15;;;1.20;;
34960;SDS011;30789;52.030;7.110;2023-10-31T15:57:30;4.22;;;1.38;;
34960;SDS011;30789;52.030;7.110;2023-10-31T15:59:56;1.92;;;1.17;;
34960;SDS011;30789;52.030;7.110;2023-10-31T16:02:24;2.55;;;1.20;;
34960;SDS011;30789;52.030;7.110;2023-10-31T16:04:51;2.97;;;1.40;;
34960;SDS011;30789;52.030;7.110;2023-10-31T16:07:17;2.95;;;1.45;;
34960;SDS011;30789;52.030;7.110;2023-10-31T16:09:45;2.95;;;1.75;;
34960;SDS011;30789;52.030;7.110;2023-10-31T16:12:12;5.40;;;2.22;;
34960;SDS011;30789;52.030;7.110;2023-10-31T16:14:40;6.03;;;2.58;;
34960;SDS011;30789;52.030;7.110;2023-10-31T16:17:06;4.80;;;2.40;;
34960;SDS011;30789;52.030;7.110;2023-10-31T16:19:34;4.20;;;2.53;;
34960;SDS011;30789;52.030;7.110;2023-10-31T16:22:00;3.35;;;2.30;;
34960;SDS011;30789;52.030;7.110;2023-10-31T16:24:27;4.78;;;2.70;;
34960;SDS011;30789;52.030;7.110;2023-10-31T16:26:54;3.13;;;2.50;;
34960;SDS011;30789;52.030;7.110;2023-10-31T16:29:20;3.83;;;2.60;;
34960;SDS011;30789;52.030;7.110;2023-10-31T16:31:47;2.67;;;2.38;;
34960;SDS011;30789;52.030;7.110;2023-10-31T16:34:13;2.55;;;2.30;;
34960;SDS011;30789;52.030;7.110;2023-10-31T16:36:41;5.13;;;2.25;;
34960;SDS011;30789;52.030;7.110;2023-10-31T16:39:09;3.30;;;2.20;;
34960;SDS011;30789;52.030;7.110;2023-10-31T16:41:35;3.33;;;2.33;;
34960;SDS011;30789;52.030;7.110;2023-10-31T16:44:02;5.65;;;4.30;;
34960;SDS011;30789;52.030;7.110;2023-10-31T16:46:29;6.50;;;3.78;;
34960;SDS011;30789;52.030;7.110;2023-10-31T16:48:55;4.68;;;3.97;;
34960;SDS011;30789;52.030;7.110;2023-10-31T16:51:22;4.72;;;3.83;;
34960;SDS011;30789;52.030;7.110;2023-10-31T16:53:50;6.75;;;3.72;;
34960;SDS011;30789;52.030;7.110;2023-10-31T16:56:16;5.57;;;3.97;;
34960;SDS011;30789;52.030;7.110;2023-10-31T16:58:43;6.28;;;4.30;;
34960;SDS011;30789;52.030;7.110;2023-10-31T17:01:11;5.50;;;3.95;;
34960;SDS011;30789;52.030;7.110;2023-10-31T17:03:38;7.60;;;4.03;;
34960;SDS011;30789;52.030;7.110;2023-10-31T17:06:05;8.93;;;6.07;;
34960;SDS011;30789;52.030;7.110;2023-10-31T17:08:32;11.75;;;8.35;;
34960;SDS011;30789;52.030;7.110;2023-10-31T17:11:02;9.35;;;8.13;;
34960;SDS011;30789;52.030;7.110;2023-10-31T17:13:29;10.57;;;7.93;;
34960;SDS011;30789;52.030;7.110;2023-10-31T17:15:56;11.88;;;8.55;;
34960;SDS011;30789;52.030;7.110;2023-10-31T17:18:23;15.38;;;11.55;;
34960;SDS011;30789;52.030;7.110;2023-10-31T17:20:50;14.65;;;11.68;;
34960;SDS011;30789;52.030;7.110;2023-10-31T17:23:16;15.20;;;11.77;;
34960;SDS011;30789;52.030;7.110;2023-10-31T17:25:43;15.68;;;10.70;;
34960;SDS011;30789;52.030;7.110;2023-10-31T17:28:14;19.48;;;14.80;;
34960;SDS011;30789;52.030;7.110;2023-10-31T17:30:41;23.65;;;16.05;;
34960;SDS011;30789;52.030;7.110;2023-10-31T17:33:07;16.98;;;13.20;;
34960;SDS011;30789;52.030;7.110;2023-10-31T17:35:34;14.27;;;12.00;;
34960;SDS011;30789;52.030;7.110;2023-10-31T17:38:00;11.68;;;10.48;;
34960;SDS011;30789;52.030;7.110;2023-10-31T17:40:27;14.25;;;10.15;;
34960;SDS011;30789;52.030;7.110;2023-10-31T17:42:55;14.85;;;10.25;;
34960;SDS011;30789;52.030;7.110;2023-10-31T17:45:23;9.88;;;8.05;;
34960;SDS011;30789;52.030;7.110;2023-10-31T17:47:50;8.60;;;6.70;;
34960;SDS011;30789;52.030;7.110;2023-10-31T17:50:17;12.98;;;7.57;;
34960;SDS011;30789;52.030;7.110;2023-10-31T17:52:43;10.32;;;7.28;;
34960;SDS011;30789;52.030;7.110;2023-10-31T17:55:10;16.50;;;7.25;;
34960;SDS011;30789;52.030;7.110;2023-10-31T17:57:36;10.10;;;6.25;;
34960;SDS011;30789;52.030;7.110;2023-10-31T18:00:03;8.05;;;6.18;;
34960;SDS011;30789;52.030;7.110;2023-10-31T18:02:32;7.43;;;5.45;;
34960;SDS011;30789;52.030;7.110;2023-10-31T18:04:58;6.82;;;5.28;;
34960;SDS011;30789;52.030;7.110;2023-10-31T18:07:27;6.20;;;5.05;;
34960;SDS011;30789;52.030;7.110;2023-10-31T18:09:53;6.72;;;4.97;;
34960;SDS011;30789;52.030;7.110;2023-10-31T18:12:21;8.35;;;4.60;;
34960;SDS011;30789;52.030;7.110;2023-10-31T18:14:48;7.28;;;4.32;;
34960;SDS011;30789;52.030;7.110;2023-10-31T18:17:15;7.30;;;4.40;;
34960;SDS011;30789;52.030;7.110;2023-10-31T18:19:43;5.47;;;3.63;;
34960;SDS011;30789;52.030;7.110;2023-10-31T18:22:09;5.25;;;3.72;;
34960;SDS011;30789;52.030;7.110;2023-10-31T18:24:36;6.63;;;4.22;;
34960;SDS011;30789;52.030;7.110;2023-10-31T18:27:03;8.95;;;3.33;;
34960;SDS011;30789;52.030;7.110;2023-10-31T18:29:31;6.38;;;3.90;;
34960;SDS011;30789;52.030;7.110;2023-10-31T18:31:57;6.93;;;4.18;;
34960;SDS011;30789;52.030;7.110;2023-10-31T18:34:24;5.78;;;3.83;;
34960;SDS011;30789;52.030;7.110;2023-10-31T18:36:52;16.83;;;7.68;;
34960;SDS011;30789;52.030;7.110;2023-10-31T18:39:18;9.02;;;4.78;;
34960;SDS011;30789;52.030;7.110;2023-10-31T18:41:45;8.68;;;5.80;;
34960;SDS011;30789;52.030;7.110;2023-10-31T18:44:12;12.02;;;7.82;;
34960;SDS011;30789;52.030;7.110;2023-10-31T18:46:38;7.00;;;5.00;;
34960;SDS011;30789;52.030;7.110;2023-10-31T18:49:08;5.97;;;5.38;;
34960;SDS011;30789;52.030;7.110;2023-10-31T18:51:34;11.00;;;5.28;;
34960;SDS011;30789;52.030;7.110;2023-10-31T18:54:02;6.63;;;4.50;;
34960;SDS011;30789;52.030;7.110;2023-10-31T18:56:29;7.72;;;4.53;;
34960;SDS011;30789;52.030;7.110;2023-10-31T19:28:07;5.53;;;4.40;;
34960;SDS011;30789;52.030;7.110;2023-10-31T19:30:48;7.05;;;5.00;;
34960;SDS011;30789;52.030;7.110;2023-10-31T19:40:22;6.85;;;5.22;;
34960;SDS011;30789;52.030;7.110;2023-10-31T21:08:35;13.43;;;8.27;;
34960;SDS011;30789;52.030;7.110;2023-10-31T21:11:05;10.52;;;8.38;;
34960;SDS011;30789;52.030;7.110;2023-10-31T21:31:45;7.22;;;5.80;;
34960;SDS011;30789;52.030;7.110;2023-10-31T23:17:06;11.85;;;6.72;;
34960;SDS011;30789;52.030;7.110;2023-10-31T23:19:51;8.65;;;6.43;;
34960;SDS011;30789;52.030;7.110;2023-10-31T23:22:34;10.85;;;6.22;;
34960;SDS011;30789;52.030;7.110;2023-10-31T23:38:15;7.97;;;5.70;;
34960;SDS011;30789;52.030;7.110;2023-10-31T23:43:48;14.98;;;6.70;;
34960;SDS011;30789;52.030;7.110;2023-10-31T23:52:39;6.35;;;5.32;;
34960;SDS011;30789;52.030;7.110;2023-10-31T23:58:20;13.18;;;5.20;;
